createdAt,value
2023-03-06T00:00:41.736Z,98020.13
2023-03-06T00:03:08.687Z,98022.00
2023-03-06T00:05:35.473Z,98020.34
2023-03-06T00:08:02.460Z,98021.41
2023-03-06T00:10:31.002Z,98026.81
2023-03-06T00:13:00.438Z,98019.78
2023-03-06T00:15:27.855Z,98023.28
2023-03-06T00:17:54.790Z,98013.00
2023-03-06T00:20:22.094Z,98022.13
2023-03-06T00:22:49.943Z,98025.56
2023-03-06T00:25:19.859Z,98028.00
2023-03-06T00:27:47.324Z,98024.25
2023-03-06T00:30:17.524Z,98019.94
2023-03-06T00:32:44.701Z,98010.22
2023-03-06T00:35:12.594Z,98015.84
2023-03-06T00:37:40.266Z,98013.34
2023-03-06T00:40:10.290Z,98015.22
2023-03-06T00:42:37.062Z,98016.03
2023-03-06T00:45:04.171Z,98001.19
2023-03-06T00:47:30.934Z,98004.34
2023-03-06T00:49:57.717Z,97997.66
2023-03-06T00:52:24.532Z,97997.91
2023-03-06T00:54:51.368Z,97983.03
2023-03-06T00:57:18.285Z,97981.97
2023-03-06T00:59:46.118Z,97990.06
2023-03-06T01:02:13.154Z,97979.53
2023-03-06T01:04:40.235Z,97981.41
2023-03-06T01:07:06.955Z,97978.94
2023-03-06T01:09:33.704Z,97984.34
2023-03-06T01:12:00.489Z,97981.66
2023-03-06T01:14:27.948Z,97973.56
2023-03-06T01:16:54.703Z,97970.88
2023-03-06T01:19:21.807Z,97965.72
2023-03-06T01:21:48.592Z,97963.25
2023-03-06T01:24:15.340Z,97961.88
2023-03-06T01:26:42.274Z,97957.06
2023-03-06T01:29:09.080Z,97956.25
2023-03-06T01:31:36.054Z,97956.56
2023-03-06T01:34:03.052Z,97955.41
2023-03-06T01:36:29.837Z,97951.09
2023-03-06T01:38:56.562Z,97951.09
2023-03-06T01:41:23.375Z,97952.97
2023-03-06T01:43:50.224Z,97951.09
2023-03-06T01:46:21.663Z,97949.47
2023-03-06T01:48:52.356Z,97948.06
2023-03-06T01:51:19.385Z,97954.84
2023-03-06T01:53:48.373Z,97946.75
2023-03-06T01:56:15.859Z,97945.63
2023-03-06T01:58:43.949Z,97949.94
2023-03-06T02:01:13.112Z,97934.59
2023-03-06T02:03:41.392Z,97934.00
2023-03-06T02:06:08.322Z,97931.31
2023-03-06T02:08:35.224Z,97929.44
2023-03-06T02:11:08.152Z,97934.00
2023-03-06T02:13:36.339Z,97927.00
2023-03-06T02:16:03.187Z,97930.97
2023-03-06T02:18:30.510Z,97923.13
2023-03-06T02:21:00.783Z,97929.31
2023-03-06T02:23:56.502Z,97923.13
2023-03-06T02:26:24.566Z,97915.28
2023-03-06T02:28:51.327Z,97916.34
2023-03-06T02:31:28.780Z,97920.91
2023-03-06T02:34:13.942Z,97914.69
2023-03-06T02:37:00.856Z,97914.69
2023-03-06T02:39:32.167Z,97914.94
2023-03-06T02:41:58.986Z,97910.63
2023-03-06T02:44:28.069Z,97907.09
2023-03-06T02:46:54.864Z,97910.63
2023-03-06T02:49:21.646Z,97902.78
2023-03-06T02:51:48.385Z,97904.66
2023-03-06T02:54:18.305Z,97897.63
2023-03-06T02:56:45.922Z,97908.41
2023-03-06T02:59:12.893Z,97900.56
2023-03-06T03:01:39.680Z,97900.00
2023-03-06T03:04:06.477Z,97901.62
2023-03-06T03:06:33.251Z,97907.59
2023-03-06T03:09:00.026Z,97901.38
2023-03-06T03:11:26.762Z,97909.47
2023-03-06T03:13:53.507Z,97907.84
2023-03-06T03:16:20.339Z,97896.47
2023-03-06T03:18:51.114Z,97893.78
2023-03-06T03:21:18.234Z,97891.91
2023-03-06T03:23:45.114Z,97890.03
2023-03-06T03:26:18.755Z,97884.88
2023-03-06T03:28:45.961Z,97876.00
2023-03-06T03:31:14.059Z,97863.00
2023-03-06T03:33:41.521Z,97869.44
2023-03-06T03:36:08.784Z,97868.41
2023-03-06T03:38:36.358Z,97874.59
2023-03-06T03:41:04.018Z,97873.78
2023-03-06T03:43:31.139Z,97879.97
2023-03-06T03:45:57.855Z,97863.72
2023-03-06T03:48:24.602Z,97867.47
2023-03-06T03:50:51.755Z,97860.69
2023-03-06T03:53:18.543Z,97869.56
2023-03-06T03:55:48.001Z,97861.16
2023-03-06T03:58:14.776Z,97857.66
2023-03-06T04:00:41.515Z,97859.53
2023-03-06T04:03:08.256Z,97863.84
2023-03-06T04:05:35.089Z,97852.84
2023-03-06T04:08:03.311Z,97854.72
2023-03-06T04:10:30.196Z,97851.44
2023-03-06T04:12:57.401Z,97851.44
2023-03-06T04:15:24.155Z,97851.69
2023-03-06T04:17:50.901Z,97845.25
2023-03-06T04:20:18.279Z,97840.91
2023-03-06T04:22:45.110Z,97845.25
2023-03-06T04:25:11.889Z,97843.63
2023-03-06T04:27:38.662Z,97838.00
2023-03-06T04:30:07.052Z,97829.91
2023-03-06T04:32:33.998Z,97827.69
2023-03-06T04:35:00.830Z,97819.88
2023-03-06T04:37:27.785Z,97825.00
2023-03-06T04:39:54.521Z,97824.19
2023-03-06T04:42:21.412Z,97824.19
2023-03-06T04:44:48.225Z,97822.56
2023-03-06T04:47:15.152Z,97821.75
2023-03-06T04:49:42.352Z,97820.09
2023-03-06T04:52:09.238Z,97819.28
2023-03-06T04:54:36.054Z,97818.22
2023-03-06T04:57:02.941Z,97822.81
2023-03-06T04:59:29.705Z,97816.03
2023-03-06T05:01:56.596Z,97813.34
2023-03-06T05:04:23.380Z,97812.75
2023-03-06T05:06:50.196Z,97809.25
2023-03-06T05:09:17.048Z,97819.78
2023-03-06T05:11:43.805Z,97809.00
2023-03-06T05:14:10.598Z,97807.13
2023-03-06T05:16:37.435Z,97806.31
2023-03-06T05:19:04.284Z,97805.50
2023-03-06T05:21:31.023Z,97799.28
2023-03-06T05:23:57.858Z,97797.41
2023-03-06T05:26:24.666Z,97803.63
2023-03-06T05:28:51.447Z,97795.78
2023-03-06T05:31:18.545Z,97783.97
2023-03-06T05:33:45.376Z,97782.09
2023-03-06T05:36:12.377Z,97787.47
2023-03-06T05:38:39.138Z,97788.53
2023-03-06T05:41:05.925Z,97788.19
2023-03-06T05:43:32.656Z,97791.69
2023-03-06T05:46:05.267Z,97790.87
2023-03-06T05:48:32.817Z,97797.91
2023-03-06T05:51:01.197Z,97790.87
2023-03-06T05:53:29.344Z,97792.97
2023-03-06T05:56:01.101Z,97788.41
2023-03-06T05:58:29.478Z,97798.34
2023-03-06T06:00:57.017Z,97789.00
2023-03-06T06:03:24.527Z,97789.25
2023-03-06T06:05:52.606Z,97791.69
2023-03-06T06:08:20.971Z,97790.06
2023-03-06T06:10:47.753Z,97795.88
2023-03-06T06:13:14.606Z,97793.78
2023-03-06T06:15:41.518Z,97798.34
2023-03-06T06:18:08.380Z,97802.94
2023-03-06T06:20:37.519Z,97800.03
2023-03-06T06:23:05.049Z,97796.28
2023-03-06T06:25:32.740Z,97791.94
2023-03-06T06:27:59.563Z,97789.25
2023-03-06T06:30:26.295Z,97792.75
2023-03-06T06:32:53.024Z,97787.38
2023-03-06T06:35:19.942Z,97787.94
2023-03-06T06:37:46.753Z,97786.31
2023-03-06T06:40:13.839Z,97787.12
2023-03-06T06:42:40.849Z,97790.41
2023-03-06T06:45:10.135Z,97786.66
2023-03-06T06:47:41.708Z,97785.84
2023-03-06T06:50:12.826Z,97782.91
2023-03-06T06:52:40.467Z,97780.44
2023-03-06T06:55:07.769Z,97785.59
2023-03-06T06:57:34.497Z,97784.28
2023-03-06T07:00:01.291Z,97784.63
2023-03-06T07:02:28.153Z,97777.94
2023-03-06T07:05:04.151Z,97779.81
2023-03-06T07:07:37.315Z,97780.38
2023-03-06T07:10:11.932Z,97778.25
2023-03-06T07:12:38.721Z,97779.06
2023-03-06T07:15:07.167Z,97782.59
2023-03-06T07:17:34.191Z,97782.09
2023-03-06T07:20:00.982Z,97781.03
2023-03-06T07:22:30.333Z,97780.81
2023-03-06T07:25:01.738Z,97775.44
2023-03-06T07:27:28.517Z,97783.28
2023-03-06T07:29:55.264Z,97780.34
2023-03-06T07:32:22.127Z,97782.53
2023-03-06T07:34:48.952Z,97775.84
2023-03-06T07:37:15.737Z,97777.81
2023-03-06T07:39:43.140Z,97783.75
2023-03-06T07:42:13.052Z,97783.28
2023-03-06T07:44:40.075Z,97780.91
2023-03-06T07:47:07.474Z,97773.19
2023-03-06T07:49:34.928Z,97768.13
2023-03-06T07:52:02.234Z,97771.94
2023-03-06T07:54:30.781Z,97770.63
2023-03-06T07:56:57.565Z,97772.59
2023-03-06T07:59:24.750Z,97768.94
2023-03-06T08:01:53.696Z,97773.00
2023-03-06T08:04:20.499Z,97770.63
2023-03-06T08:06:47.280Z,97771.22
2023-03-06T08:09:14.025Z,97767.19
2023-03-06T08:11:40.760Z,97768.34
2023-03-06T08:14:07.493Z,97768.09
2023-03-06T08:16:34.338Z,97766.78
2023-03-06T08:19:01.084Z,97766.53
2023-03-06T08:21:29.180Z,97765.22
2023-03-06T08:23:56.018Z,97761.22
2023-03-06T08:26:25.905Z,97758.28
2023-03-06T08:28:54.680Z,97751.34
2023-03-06T08:31:27.421Z,97743.31
2023-03-06T08:33:55.592Z,97740.91
2023-03-06T08:36:23.920Z,97745.56
2023-03-06T08:38:51.330Z,97745.91
2023-03-06T08:41:19.089Z,97750.56
2023-03-06T08:43:47.027Z,97745.47
2023-03-06T08:46:13.891Z,97743.66
2023-03-06T08:48:40.765Z,97744.53
2023-03-06T08:51:11.243Z,97742.16
2023-03-06T08:53:43.418Z,97740.34
2023-03-06T08:56:28.580Z,97749.56
2023-03-06T08:58:56.811Z,97744.47
2023-03-06T09:01:35.209Z,97743.69
2023-03-06T09:04:06.058Z,97745.66
2023-03-06T09:06:35.482Z,97744.91
2023-03-06T09:09:03.233Z,97745.22
2023-03-06T09:11:30.571Z,97747.16
2023-03-06T09:13:57.643Z,97744.50
2023-03-06T09:16:25.141Z,97745.37
2023-03-06T09:18:54.050Z,97741.12
2023-03-06T09:21:22.229Z,97740.91
2023-03-06T09:23:49.296Z,97738.25
2023-03-06T09:26:16.128Z,97739.94
2023-03-06T09:28:43.114Z,97739.19
2023-03-06T09:31:12.411Z,97739.22
2023-03-06T09:33:39.807Z,97738.44
2023-03-06T09:36:19.049Z,97731.19
2023-03-06T09:38:48.352Z,97738.28
2023-03-06T09:41:27.115Z,97734.81
2023-03-06T09:44:04.745Z,97728.16
2023-03-06T09:47:15.962Z,97724.66
2023-03-06T09:49:48.746Z,97720.13
2023-03-06T09:52:36.351Z,97717.22
2023-03-06T09:55:29.687Z,97716.16
2023-03-06T09:58:02.826Z,97710.78
2023-03-06T10:00:32.438Z,97706.22
2023-03-06T10:03:05.054Z,97711.12
2023-03-06T10:06:09.625Z,97702.22
2023-03-06T10:08:54.349Z,97702.81
2023-03-06T10:11:41.854Z,97708.25
2023-03-06T10:14:23.779Z,97705.56
2023-03-06T10:16:50.619Z,97694.78
2023-03-06T10:19:20.137Z,97692.09
2023-03-06T10:22:17.699Z,97691.31
2023-03-06T10:25:01.541Z,97689.69
2023-03-06T10:27:31.728Z,97695.94
2023-03-06T10:30:24.074Z,97685.16
2023-03-06T10:32:59.277Z,97688.97
2023-03-06T10:35:33.227Z,97695.19
2023-03-06T10:38:27.065Z,97697.91
2023-03-06T10:41:22.583Z,97680.91
2023-03-06T10:44:01.499Z,97682.53
2023-03-06T10:46:37.341Z,97679.84
2023-03-06T10:49:09.201Z,97676.06
2023-03-06T10:51:36.067Z,97672.00
2023-03-06T10:54:18.876Z,97667.44
2023-03-06T10:56:47.448Z,97665.81
2023-03-06T10:59:20.458Z,97665.00
2023-03-06T11:01:50.336Z,97660.66
2023-03-06T11:04:35.640Z,97663.38
2023-03-06T11:07:19.662Z,97663.41
2023-03-06T11:09:48.117Z,97662.59
2023-03-06T11:12:23.287Z,97655.53
2023-03-06T11:15:09.219Z,97652.00
2023-03-06T11:17:46.788Z,97651.19
2023-03-06T11:20:18.401Z,97642.00
2023-03-06T11:23:03.363Z,97642.03
2023-03-06T11:25:53.927Z,97651.22
2023-03-06T11:28:26.006Z,97639.56
2023-03-06T11:30:59.678Z,97644.97
2023-03-06T11:33:48.704Z,97637.38
2023-03-06T11:36:36.030Z,97643.38
2023-03-06T11:39:14.535Z,97629.53
2023-03-06T11:41:57.633Z,97620.59
2023-03-06T11:44:43.510Z,97618.41
2023-03-06T11:47:35.028Z,97605.66
2023-03-06T11:50:10.884Z,97602.41
2023-03-06T11:52:47.651Z,97607.56
2023-03-06T11:55:24.458Z,97603.47
2023-03-06T11:58:20.244Z,97599.13
2023-03-06T12:01:01.546Z,97592.34
2023-03-06T12:03:57.926Z,97598.00
2023-03-06T12:06:33.672Z,97591.78
2023-03-06T12:09:12.509Z,97584.72
2023-03-06T12:12:07.323Z,97584.69
2023-03-06T12:14:42.834Z,97579.53
2023-03-06T12:17:21.465Z,97582.50
2023-03-06T12:20:20.406Z,97574.88
2023-03-06T12:23:14.589Z,97569.97
2023-03-06T12:25:45.160Z,97570.53
2023-03-06T12:28:30.495Z,97571.06
2023-03-06T12:31:18.735Z,97576.50
2023-03-06T12:34:14.222Z,97573.78
2023-03-06T12:36:43.944Z,97572.69
2023-03-06T12:39:23.248Z,97576.22
2023-03-06T12:42:22.634Z,97572.41
2023-03-06T12:44:52.918Z,97574.03
2023-03-06T12:47:25.552Z,97567.81
2023-03-06T12:50:01.266Z,97570.25
2023-03-06T12:52:31.502Z,97568.34
2023-03-06T12:55:05.899Z,97569.69
2023-03-06T12:57:32.749Z,97564.78
2023-03-06T12:59:59.595Z,97563.69
2023-03-06T13:02:53.698Z,97566.94
2023-03-06T13:05:29.319Z,97564.75
2023-03-06T13:08:34.720Z,97561.75
2023-03-06T13:11:27.342Z,97568.00
2023-03-06T13:13:54.973Z,97563.91
2023-03-06T13:16:31.856Z,97556.84
2023-03-06T13:19:11.399Z,97561.19
2023-03-06T13:21:41.287Z,97562.81
2023-03-06T13:24:21.471Z,97557.38
2023-03-06T13:26:48.154Z,97553.59
2023-03-06T13:29:40.985Z,97557.13
2023-03-06T13:32:18.765Z,97553.31
2023-03-06T13:34:50.104Z,97556.03
2023-03-06T13:37:16.811Z,97568.53
2023-03-06T13:39:52.399Z,97561.47
2023-03-06T13:42:29.331Z,97566.91
2023-03-06T13:45:08.467Z,97555.22
2023-03-06T13:48:33.928Z,97559.84
2023-03-06T13:50:47.690Z,97550.09
2023-03-06T13:53:32.898Z,97550.09
2023-03-06T13:55:59.601Z,97545.72
2023-03-06T13:58:50.605Z,97543.81
2023-03-06T14:01:17.395Z,97549.53
2023-03-06T14:03:59.508Z,97543.28
2023-03-06T14:06:35.105Z,97538.13
2023-03-06T14:09:11.902Z,97539.22
2023-03-06T14:11:45.944Z,97537.31
2023-03-06T14:14:13.117Z,97532.19
2023-03-06T14:16:49.852Z,97528.66
2023-03-06T14:19:19.484Z,97518.88
2023-03-06T14:21:57.422Z,97519.16
2023-03-06T14:24:37.074Z,97522.97
2023-03-06T14:27:04.661Z,97517.03
2023-03-06T14:29:33.179Z,97515.41
2023-03-06T14:32:01.465Z,97512.97
2023-03-06T14:34:32.333Z,97512.44
2023-03-06T14:37:02.853Z,97516.53
2023-03-06T14:39:43.224Z,97513.00
2023-03-06T14:42:22.096Z,97517.91
2023-03-06T14:45:00.915Z,97514.63
2023-03-06T14:47:30.976Z,97516.81
2023-03-06T14:50:27.235Z,97520.06
2023-03-06T14:53:05.219Z,97520.62
2023-03-06T14:55:34.990Z,97505.16
2023-03-06T14:58:16.234Z,97499.75
2023-03-06T15:00:46.904Z,97500.84
2023-03-06T15:03:19.675Z,97507.34
2023-03-06T15:05:47.624Z,97504.09
2023-03-06T15:08:19.494Z,97505.19
2023-03-06T15:11:06.218Z,97501.97
2023-03-06T15:13:34.615Z,97510.09
2023-03-06T15:16:21.604Z,97512.81
2023-03-06T15:18:59.892Z,97510.38
2023-03-06T15:21:29.570Z,97510.66
2023-03-06T15:23:57.460Z,97515.28
2023-03-06T15:26:34.201Z,97514.75
2023-03-06T15:29:22.019Z,97518.53
2023-03-06T15:31:49.236Z,97522.34
2023-03-06T15:34:24.536Z,97528.28
2023-03-06T15:36:54.419Z,97523.44
2023-03-06T15:39:33.130Z,97523.19
2023-03-06T15:42:38.480Z,97518.84
2023-03-06T15:45:18.118Z,97522.13
2023-03-06T15:47:46.162Z,97522.66
2023-03-06T15:50:24.606Z,97516.19
2023-03-06T15:52:51.740Z,97517.53
2023-03-06T15:55:24.211Z,97509.69
2023-03-06T15:57:55.546Z,97506.69
2023-03-06T16:00:28.697Z,97505.88
2023-03-06T16:02:59.154Z,97498.31
2023-03-06T16:05:27.789Z,97502.09
2023-03-06T16:07:55.178Z,97498.06
2023-03-06T16:10:25.062Z,97498.59
2023-03-06T16:12:56.758Z,97497.78
2023-03-06T16:15:29.848Z,97496.44
2023-03-06T16:17:57.666Z,97489.69
2023-03-06T16:20:26.930Z,97499.44
2023-03-06T16:22:54.833Z,97504.00
2023-03-06T16:25:24.026Z,97499.94
2023-03-06T16:27:59.607Z,97497.50
2023-03-06T16:30:29.742Z,97492.91
2023-03-06T16:32:57.554Z,97495.06
2023-03-06T16:35:24.996Z,97490.22
2023-03-06T16:37:52.417Z,97490.75
2023-03-06T16:40:23.317Z,97503.78
2023-03-06T16:42:50.829Z,97501.34
2023-03-06T16:45:20.229Z,97499.47
2023-03-06T16:47:48.203Z,97510.31
2023-03-06T16:50:34.142Z,97512.19
2023-03-06T16:53:01.304Z,97508.94
2023-03-06T16:55:28.518Z,97515.97
2023-03-06T16:57:55.680Z,97521.41
2023-03-06T17:00:24.825Z,97528.19
2023-03-06T17:02:52.929Z,97520.59
2023-03-06T17:05:20.589Z,97525.50
2023-03-06T17:07:48.134Z,97527.66
2023-03-06T17:10:19.152Z,97529.00
2023-03-06T17:12:46.267Z,97530.38
2023-03-06T17:15:14.430Z,97540.38
2023-03-06T17:17:41.657Z,97537.66
2023-03-06T17:20:09.793Z,97531.97
2023-03-06T17:22:38.191Z,97539.84
2023-03-06T17:25:07.066Z,97527.38
2023-03-06T17:27:37.116Z,97526.56
2023-03-06T17:30:06.147Z,97526.56
2023-03-06T17:32:33.743Z,97520.34
2023-03-06T17:35:01.430Z,97522.25
2023-03-06T17:37:28.698Z,97536.88
2023-03-06T17:39:56.059Z,97543.62
2023-03-06T17:42:24.144Z,97549.28
2023-03-06T17:44:53.805Z,97556.59
2023-03-06T17:47:21.918Z,97564.72
2023-03-06T17:49:50.264Z,97562.81
2023-03-06T17:52:18.152Z,97550.09
2023-03-06T17:54:46.894Z,97556.88
2023-03-06T17:57:14.093Z,97559.31
2023-03-06T17:59:42.054Z,97557.13
2023-03-06T18:02:10.647Z,97556.00
2023-03-06T18:04:38.490Z,97549.78
2023-03-06T18:07:06.109Z,97550.34
2023-03-06T18:09:33.767Z,97545.47
2023-03-06T18:12:01.538Z,97544.38
2023-03-06T18:14:29.041Z,97547.63
2023-03-06T18:16:56.264Z,97548.97
2023-03-06T18:19:23.471Z,97540.03
2023-03-06T18:21:52.979Z,97554.37
2023-03-06T18:24:21.487Z,97568.94
2023-03-06T18:26:48.637Z,97562.97
2023-03-06T18:29:17.275Z,97577.56
2023-03-06T18:31:46.514Z,97552.94
2023-03-06T18:34:18.807Z,97553.75
2023-03-06T18:36:48.694Z,97559.41
2023-03-06T18:39:18.019Z,97559.91
2023-03-06T18:41:45.597Z,97562.09
2023-03-06T18:44:15.827Z,97558.28
2023-03-06T18:46:43.360Z,97563.44
2023-03-06T18:49:13.019Z,97567.50
2023-03-06T18:51:42.489Z,97562.63
2023-03-06T18:54:12.284Z,97564.78
2023-03-06T18:56:44.783Z,97564.75
2023-03-06T18:59:18.891Z,97570.69
2023-03-06T19:01:48.111Z,97580.66
2023-03-06T19:04:15.945Z,97582.56
2023-03-06T19:06:45.217Z,97574.94
2023-03-06T19:09:13.087Z,97581.69
2023-03-06T19:11:41.098Z,97582.78
2023-03-06T19:14:09.164Z,97588.44
2023-03-06T19:16:37.173Z,97597.09
2023-03-06T19:19:04.785Z,97593.28
2023-03-06T19:21:35.314Z,97582.47
2023-03-06T19:24:03.306Z,97585.94
2023-03-06T19:26:30.603Z,97579.16
2023-03-06T19:29:00.684Z,97575.63
2023-03-06T19:31:29.339Z,97587.00
2023-03-06T19:33:57.691Z,97587.75
2023-03-06T19:36:33.642Z,97588.56
2023-03-06T19:39:05.769Z,97592.63
2023-03-06T19:41:33.857Z,97585.03
2023-03-06T19:44:06.387Z,97574.47
2023-03-06T19:46:36.400Z,97567.16
2023-03-06T19:49:12.668Z,97563.91
2023-03-06T19:51:40.816Z,97569.56
2023-03-06T19:54:09.647Z,97589.31
2023-03-06T19:56:37.348Z,97596.03
2023-03-06T19:59:04.617Z,97590.34
2023-03-06T20:01:32.463Z,97594.13
2023-03-06T20:04:00.875Z,97593.06
2023-03-06T20:06:32.127Z,97592.50
2023-03-06T20:09:02.562Z,97598.72
2023-03-06T20:11:31.836Z,97595.13
2023-03-06T20:14:02.479Z,97598.34
2023-03-06T20:16:31.578Z,97596.72
2023-03-06T20:19:01.599Z,97588.88
2023-03-06T20:21:32.709Z,97591.87
2023-03-06T20:24:02.251Z,97600.50
2023-03-06T20:26:35.138Z,97604.03
2023-03-06T20:29:03.353Z,97609.13
2023-03-06T20:31:32.423Z,97613.97
2023-03-06T20:34:01.379Z,97610.19
2023-03-06T20:36:39.334Z,97610.47
2023-03-06T20:39:13.816Z,97614.50
2023-03-06T20:41:42.009Z,97617.44
2023-03-06T20:44:15.009Z,97603.13
2023-03-06T20:46:44.607Z,97611.25
2023-03-06T20:49:14.136Z,97613.13
2023-03-06T20:51:42.309Z,97617.72
2023-03-06T20:54:14.707Z,97625.25
2023-03-06T20:56:45.317Z,97623.63
2023-03-06T20:59:13.345Z,97623.03
2023-03-06T21:01:43.639Z,97611.16
2023-03-06T21:04:14.237Z,97621.38
2023-03-06T21:06:46.992Z,97618.41
2023-03-06T21:09:17.140Z,97618.69
2023-03-06T21:11:46.054Z,97618.13
2023-03-06T21:14:14.407Z,97610.53
2023-03-06T21:16:41.709Z,97611.09
2023-03-06T21:19:09.308Z,97612.16
2023-03-06T21:21:36.420Z,97601.63
2023-03-06T21:24:03.753Z,97597.56
2023-03-06T21:26:33.868Z,97607.81
2023-03-06T21:29:02.697Z,97602.41
2023-03-06T21:31:30.865Z,97609.69
2023-03-06T21:33:59.191Z,97618.03
2023-03-06T21:36:27.656Z,97625.25
2023-03-06T21:38:55.020Z,97630.66
2023-03-06T21:41:26.934Z,97615.53
2023-03-06T21:43:55.481Z,97621.75
2023-03-06T21:46:22.666Z,97627.12
2023-03-06T21:48:49.663Z,97621.44
2023-03-06T21:51:19.163Z,97617.13
2023-03-06T21:53:48.199Z,97607.94
2023-03-06T21:56:17.279Z,97603.62
2023-03-06T21:58:45.889Z,97595.78
2023-03-06T22:01:16.896Z,97596.84
2023-03-06T22:03:43.758Z,97596.03
2023-03-06T22:06:12.246Z,97591.41
2023-03-06T22:08:39.798Z,97603.00
2023-03-06T22:11:15.191Z,97604.09
2023-03-06T22:13:42.759Z,97604.84
2023-03-06T22:16:09.846Z,97603.72
2023-03-06T22:18:37.243Z,97606.66
2023-03-06T22:21:12.370Z,97605.59
2023-03-06T22:23:40.453Z,97612.06
2023-03-06T22:26:12.862Z,97613.38
2023-03-06T22:28:40.968Z,97603.41
2023-03-06T22:31:14.128Z,97599.38
2023-03-06T22:33:41.548Z,97597.75
2023-03-06T22:36:11.567Z,97593.94
2023-03-06T22:38:40.384Z,97591.81
2023-03-06T22:41:08.612Z,97595.56
2023-03-06T22:43:36.236Z,97599.59
2023-03-06T22:46:05.777Z,97599.59
2023-03-06T22:48:33.224Z,97601.47
2023-03-06T22:51:14.676Z,97601.72
2023-03-06T22:53:41.828Z,97604.69
2023-03-06T22:56:11.809Z,97601.44
2023-03-06T22:58:39.350Z,97589.81
2023-03-06T23:01:08.905Z,97597.09
2023-03-06T23:03:37.253Z,97600.06
2023-03-06T23:06:17.035Z,97602.75
2023-03-06T23:08:48.076Z,97600.06
2023-03-06T23:11:17.250Z,97597.88
2023-03-06T23:13:44.752Z,97602.44
2023-03-06T23:16:11.965Z,97594.63
2023-03-06T23:18:39.375Z,97601.63
2023-03-06T23:21:12.087Z,97606.78
2023-03-06T23:23:40.084Z,97617.00
2023-03-06T23:26:08.542Z,97618.06
2023-03-06T23:28:35.336Z,97612.09
2023-03-06T23:31:09.731Z,97611.53
2023-03-06T23:33:38.733Z,97604.25
2023-03-06T23:36:11.660Z,97606.38
2023-03-06T23:38:38.985Z,97608.84
2023-03-06T23:41:09.061Z,97603.94
2023-03-06T23:43:36.464Z,97599.06
2023-03-06T23:46:03.540Z,97603.38
2023-03-06T23:48:30.514Z,97596.62
2023-03-06T23:50:57.416Z,97602.81
2023-03-06T23:53:24.292Z,97606.59
2023-03-06T23:55:51.914Z,97605.78
2023-03-06T23:58:20.816Z,97612.50
